sensor_id;sensor_type;location;lat;lon;timestamp;pressure;altitude;pressure_sealevel;temperature;humidity
61814;BME280;57055;-35.296;149.168;2023-01-28T00:00:02;94941.44;;;25.45;44.58
61814;BME280;57055;-35.296;149.168;2023-01-28T00:02:31;94935.22;;;25.33;44.00
61814;BME280;57055;-35.296;149.168;2023-01-28T00:05:03;94932.82;;;25.36;43.83
61814;BME280;57055;-35.296;149.168;2023-01-28T00:07:32;94925.61;;;25.31;43.76
61814;BME280;57055;-35.296;149.168;2023-01-28T00:10:01;94928.56;;;25.45;44.28
61814;BME280;57055;-35.296;149.168;2023-01-28T00:12:29;94927.10;;;25.48;43.80
61814;BME280;57055;-35.296;149.168;2023-01-28T00:14:58;94924.24;;;25.62;43.61
61814;BME280;57055;-35.296;149.168;2023-01-28T00:17:27;94927.95;;;25.78;43.22
61814;BME280;57055;-35.296;149.168;2023-01-28T00:19:56;94924.87;;;25.97;43.50
61814;BME280;57055;-35.296;149.168;2023-01-28T00:22:25;94926.21;;;26.06;42.73
61814;BME280;57055;-35.296;149.168;2023-01-28T00:24:54;94925.66;;;26.02;43.08
61814;BME280;57055;-35.296;149.168;2023-01-28T00:27:24;94926.84;;;25.98;42.76
61814;BME280;57055;-35.296;149.168;2023-01-28T00:29:53;94925.27;;;26.25;42.75
61814;BME280;57055;-35.296;149.168;2023-01-28T00:32:22;94919.52;;;26.13;42.43
61814;BME280;57055;-35.296;149.168;2023-01-28T00:34:51;94915.28;;;26.42;42.12
61814;BME280;57055;-35.296;149.168;2023-01-28T00:37:21;94912.91;;;26.27;41.74
61814;BME280;57055;-35.296;149.168;2023-01-28T00:39:50;94908.26;;;26.51;41.73
61814;BME280;57055;-35.296;149.168;2023-01-28T00:42:18;94905.84;;;26.28;41.67
61814;BME280;57055;-35.296;149.168;2023-01-28T00:44:47;94903.82;;;26.40;41.29
61814;BME280;57055;-35.296;149.168;2023-01-28T00:47:17;94901.35;;;26.58;40.78
61814;BME280;57055;-35.296;149.168;2023-01-28T00:49:46;94903.31;;;26.48;40.31
61814;BME280;57055;-35.296;149.168;2023-01-28T00:52:15;94902.93;;;26.57;41.03
61814;BME280;57055;-35.296;149.168;2023-01-28T00:54:44;94898.86;;;26.99;41.04
61814;BME280;57055;-35.296;149.168;2023-01-28T00:57:13;94890.64;;;26.82;40.53
61814;BME280;57055;-35.296;149.168;2023-01-28T00:59:43;94891.20;;;26.72;41.57
61814;BME280;57055;-35.296;149.168;2023-01-28T01:02:12;94882.16;;;26.95;40.53
61814;BME280;57055;-35.296;149.168;2023-01-28T01:04:41;94875.43;;;26.92;40.91
61814;BME280;57055;-35.296;149.168;2023-01-28T01:07:13;94876.31;;;27.09;41.36
61814;BME280;57055;-35.296;149.168;2023-01-28T01:09:41;94877.40;;;26.92;40.77
61814;BME280;57055;-35.296;149.168;2023-01-28T01:12:11;94872.06;;;26.86;40.93
61814;BME280;57055;-35.296;149.168;2023-01-28T01:14:40;94864.25;;;26.97;39.91
61814;BME280;57055;-35.296;149.168;2023-01-28T01:17:09;94864.39;;;26.52;40.25
61814;BME280;57055;-35.296;149.168;2023-01-28T01:19:38;94858.74;;;26.97;40.75
61814;BME280;57055;-35.296;149.168;2023-01-28T01:22:08;94863.53;;;27.29;39.65
61814;BME280;57055;-35.296;149.168;2023-01-28T01:24:37;94857.40;;;27.15;39.46
61814;BME280;57055;-35.296;149.168;2023-01-28T01:27:06;94853.11;;;27.28;39.42
61814;BME280;57055;-35.296;149.168;2023-01-28T01:29:35;94847.91;;;27.48;39.25
61814;BME280;57055;-35.296;149.168;2023-01-28T01:32:05;94836.04;;;27.45;38.91
61814;BME280;57055;-35.296;149.168;2023-01-28T01:34:34;94831.43;;;27.53;37.82
61814;BME280;57055;-35.296;149.168;2023-01-28T01:37:03;94833.71;;;27.75;37.27
61814;BME280;57055;-35.296;149.168;2023-01-28T01:39:32;94827.48;;;27.60;37.05
61814;BME280;57055;-35.296;149.168;2023-01-28T01:42:01;94823.54;;;27.61;37.74
61814;BME280;57055;-35.296;149.168;2023-01-28T01:45:04;94815.94;;;27.85;36.17
61814;BME280;57055;-35.296;149.168;2023-01-28T01:47:39;94799.89;;;27.59;36.71
61814;BME280;57055;-35.296;149.168;2023-01-28T01:50:16;94798.07;;;27.82;36.71
61814;BME280;57055;-35.296;149.168;2023-01-28T01:52:49;94798.08;;;28.03;36.99
61814;BME280;57055;-35.296;149.168;2023-01-28T01:55:23;94786.17;;;28.16;37.08
61814;BME280;57055;-35.296;149.168;2023-01-28T01:57:56;94782.15;;;28.05;36.46
61814;BME280;57055;-35.296;149.168;2023-01-28T02:00:26;94774.76;;;27.76;36.76
61814;BME280;57055;-35.296;149.168;2023-01-28T02:02:55;94765.93;;;27.99;35.49
61814;BME280;57055;-35.296;149.168;2023-01-28T02:05:25;94761.82;;;28.43;36.27
61814;BME280;57055;-35.296;149.168;2023-01-28T02:07:58;94756.60;;;28.50;35.18
61814;BME280;57055;-35.296;149.168;2023-01-28T02:10:27;94745.90;;;28.88;34.96
61814;BME280;57055;-35.296;149.168;2023-01-28T02:12:57;94748.09;;;29.07;34.69
61814;BME280;57055;-35.296;149.168;2023-01-28T02:15:26;94742.68;;;29.30;33.99
61814;BME280;57055;-35.296;149.168;2023-01-28T02:17:57;94742.54;;;29.40;33.26
61814;BME280;57055;-35.296;149.168;2023-01-28T02:20:34;94743.61;;;29.32;33.55
61814;BME280;57055;-35.296;149.168;2023-01-28T02:23:21;94737.74;;;29.04;32.94
61814;BME280;57055;-35.296;149.168;2023-01-28T02:26:18;94728.14;;;29.16;32.87
61814;BME280;57055;-35.296;149.168;2023-01-28T02:28:55;94723.98;;;29.48;32.30
61814;BME280;57055;-35.296;149.168;2023-01-28T02:31:31;94723.90;;;29.38;32.20
61814;BME280;57055;-35.296;149.168;2023-01-28T02:34:07;94703.91;;;29.26;32.10
61814;BME280;57055;-35.296;149.168;2023-01-28T02:36:44;94700.37;;;29.53;31.91
61814;BME280;57055;-35.296;149.168;2023-01-28T02:39:17;94707.40;;;29.63;31.15
61814;BME280;57055;-35.296;149.168;2023-01-28T02:41:52;94704.46;;;29.72;31.25
61814;BME280;57055;-35.296;149.168;2023-01-28T02:44:23;94696.37;;;29.61;31.54
61814;BME280;57055;-35.296;149.168;2023-01-28T02:46:53;94701.75;;;29.93;30.58
61814;BME280;57055;-35.296;149.168;2023-01-28T02:49:25;94704.32;;;30.04;28.52
61814;BME280;57055;-35.296;149.168;2023-01-28T02:52:07;94701.67;;;29.64;27.16
61814;BME280;57055;-35.296;149.168;2023-01-28T02:54:43;94697.19;;;30.12;25.98
61814;BME280;57055;-35.296;149.168;2023-01-28T02:57:28;94688.58;;;29.87;24.83
61814;BME280;57055;-35.296;149.168;2023-01-28T03:00:08;94686.19;;;29.93;24.79
61814;BME280;57055;-35.296;149.168;2023-01-28T03:02:45;94684.80;;;30.35;24.46
61814;BME280;57055;-35.296;149.168;2023-01-28T03:05:19;94683.22;;;30.04;24.68
61814;BME280;57055;-35.296;149.168;2023-01-28T03:07:52;94685.09;;;30.11;24.89
61814;BME280;57055;-35.296;149.168;2023-01-28T03:10:25;94677.74;;;30.62;25.21
61814;BME280;57055;-35.296;149.168;2023-01-28T03:12:56;94671.20;;;30.43;25.23
61814;BME280;57055;-35.296;149.168;2023-01-28T03:15:28;94670.34;;;30.53;24.44
61814;BME280;57055;-35.296;149.168;2023-01-28T03:18:03;94669.45;;;30.70;23.99
61814;BME280;57055;-35.296;149.168;2023-01-28T03:20:38;94661.05;;;30.63;23.87
61814;BME280;57055;-35.296;149.168;2023-01-28T03:23:12;94668.33;;;30.70;23.11
61814;BME280;57055;-35.296;149.168;2023-01-28T03:25:44;94668.13;;;30.71;22.24
61814;BME280;57055;-35.296;149.168;2023-01-28T03:28:17;94667.45;;;30.72;22.15
61814;BME280;57055;-35.296;149.168;2023-01-28T03:30:54;94664.74;;;30.68;22.24
61814;BME280;57055;-35.296;149.168;2023-01-28T03:33:25;94657.97;;;30.70;22.45
61814;BME280;57055;-35.296;149.168;2023-01-28T03:35:54;94660.34;;;30.85;22.71
61814;BME280;57055;-35.296;149.168;2023-01-28T03:38:23;94654.28;;;30.81;22.72
61814;BME280;57055;-35.296;149.168;2023-01-28T03:40:57;94646.89;;;30.86;22.21
61814;BME280;57055;-35.296;149.168;2023-01-28T03:43:27;94645.44;;;30.91;22.59
61814;BME280;57055;-35.296;149.168;2023-01-28T03:45:56;94638.67;;;30.87;22.49
61814;BME280;57055;-35.296;149.168;2023-01-28T03:48:27;94624.26;;;30.92;22.38
61814;BME280;57055;-35.296;149.168;2023-01-28T03:50:57;94623.88;;;31.01;22.72
61814;BME280;57055;-35.296;149.168;2023-01-28T03:53:26;94625.66;;;31.15;22.96
61814;BME280;57055;-35.296;149.168;2023-01-28T03:55:55;94624.90;;;31.37;22.18
61814;BME280;57055;-35.296;149.168;2023-01-28T03:58:25;94618.38;;;31.13;22.50
61814;BME280;57055;-35.296;149.168;2023-01-28T04:00:54;94613.43;;;31.43;22.97
61814;BME280;57055;-35.296;149.168;2023-01-28T04:03:23;94602.77;;;31.03;22.73
61814;BME280;57055;-35.296;149.168;2023-01-28T04:06:00;94589.29;;;31.19;22.51
61814;BME280;57055;-35.296;149.168;2023-01-28T04:08:29;94591.97;;;31.02;22.57
61814;BME280;57055;-35.296;149.168;2023-01-28T04:11:00;94600.13;;;31.23;22.42
61814;BME280;57055;-35.296;149.168;2023-01-28T04:13:29;94603.38;;;31.64;22.16
61814;BME280;57055;-35.296;149.168;2023-01-28T04:15:58;94597.96;;;31.62;22.31
61814;BME280;57055;-35.296;149.168;2023-01-28T04:18:27;94600.69;;;31.37;22.38
61814;BME280;57055;-35.296;149.168;2023-01-28T04:20:56;94598.49;;;31.54;21.34
61814;BME280;57055;-35.296;149.168;2023-01-28T04:23:26;94598.94;;;31.50;20.89
61814;BME280;57055;-35.296;149.168;2023-01-28T04:25:55;94590.24;;;31.40;21.03
61814;BME280;57055;-35.296;149.168;2023-01-28T04:28:24;94588.01;;;31.27;21.44
61814;BME280;57055;-35.296;149.168;2023-01-28T04:30:53;94590.55;;;31.44;20.07
61814;BME280;57055;-35.296;149.168;2023-01-28T04:33:22;94585.37;;;31.30;20.40
61814;BME280;57055;-35.296;149.168;2023-01-28T04:35:51;94583.37;;;31.20;20.22
61814;BME280;57055;-35.296;149.168;2023-01-28T04:38:20;94582.13;;;31.36;19.79
61814;BME280;57055;-35.296;149.168;2023-01-28T04:40:51;94587.12;;;31.64;19.46
61814;BME280;57055;-35.296;149.168;2023-01-28T04:43:20;94580.67;;;31.34;19.49
61814;BME280;57055;-35.296;149.168;2023-01-28T04:45:50;94578.53;;;31.17;19.82
61814;BME280;57055;-35.296;149.168;2023-01-28T04:48:19;94570.56;;;31.28;20.30
61814;BME280;57055;-35.296;149.168;2023-01-28T04:50:48;94570.91;;;31.36;20.22
61814;BME280;57055;-35.296;149.168;2023-01-28T04:53:17;94571.93;;;31.67;20.46
61814;BME280;57055;-35.296;149.168;2023-01-28T04:55:46;94565.04;;;31.34;20.32
61814;BME280;57055;-35.296;149.168;2023-01-28T04:58:15;94561.51;;;31.26;20.62
61814;BME280;57055;-35.296;149.168;2023-01-28T05:00:45;94556.92;;;31.26;20.85
61814;BME280;57055;-35.296;149.168;2023-01-28T05:03:14;94547.54;;;31.19;21.00
61814;BME280;57055;-35.296;149.168;2023-01-28T05:05:43;94546.95;;;31.23;21.14
61814;BME280;57055;-35.296;149.168;2023-01-28T05:08:12;94537.53;;;31.49;20.95
61814;BME280;57055;-35.296;149.168;2023-01-28T05:10:41;94536.08;;;31.43;20.92
61814;BME280;57055;-35.296;149.168;2023-01-28T05:13:11;94535.90;;;31.29;20.83
61814;BME280;57055;-35.296;149.168;2023-01-28T05:15:40;94536.80;;;31.39;20.86
61814;BME280;57055;-35.296;149.168;2023-01-28T05:18:09;94537.25;;;31.43;20.40
61814;BME280;57055;-35.296;149.168;2023-01-28T05:20:38;94528.09;;;31.30;20.42
61814;BME280;57055;-35.296;149.168;2023-01-28T05:23:07;94534.51;;;31.59;20.39
61814;BME280;57055;-35.296;149.168;2023-01-28T05:25:37;94533.82;;;31.33;20.09
61814;BME280;57055;-35.296;149.168;2023-01-28T05:28:06;94533.83;;;31.18;20.37
61814;BME280;57055;-35.296;149.168;2023-01-28T05:30:36;94535.10;;;31.18;20.53
61814;BME280;57055;-35.296;149.168;2023-01-28T05:33:05;94532.09;;;31.38;20.77
61814;BME280;57055;-35.296;149.168;2023-01-28T05:35:34;94529.38;;;31.39;20.89
61814;BME280;57055;-35.296;149.168;2023-01-28T05:38:03;94530.34;;;31.67;20.39
61814;BME280;57055;-35.296;149.168;2023-01-28T05:40:32;94521.87;;;31.45;20.37
61814;BME280;57055;-35.296;149.168;2023-01-28T05:43:02;94520.56;;;31.54;20.70
61814;BME280;57055;-35.296;149.168;2023-01-28T05:45:31;94520.05;;;31.42;21.00
61814;BME280;57055;-35.296;149.168;2023-01-28T05:48:00;94519.90;;;31.62;20.33
61814;BME280;57055;-35.296;149.168;2023-01-28T05:50:29;94522.17;;;31.39;20.61
61814;BME280;57055;-35.296;149.168;2023-01-28T05:52:58;94517.54;;;31.60;20.32
61814;BME280;57055;-35.296;149.168;2023-01-28T05:55:27;94519.82;;;31.36;20.54
61814;BME280;57055;-35.296;149.168;2023-01-28T05:57:56;94513.47;;;31.64;20.21
61814;BME280;57055;-35.296;149.168;2023-01-28T06:00:26;94512.43;;;31.49;20.50
61814;BME280;57055;-35.296;149.168;2023-01-28T06:02:55;94514.39;;;31.37;20.55
61814;BME280;57055;-35.296;149.168;2023-01-28T06:05:24;94510.95;;;31.12;20.67
61814;BME280;57055;-35.296;149.168;2023-01-28T06:07:54;94514.46;;;31.59;20.66
61814;BME280;57055;-35.296;149.168;2023-01-28T06:10:23;94512.95;;;31.47;20.77
61814;BME280;57055;-35.296;149.168;2023-01-28T06:12:52;94513.10;;;30.86;21.34
61814;BME280;57055;-35.296;149.168;2023-01-28T06:15:22;94509.10;;;31.21;21.69
61814;BME280;57055;-35.296;149.168;2023-01-28T06:17:51;94505.97;;;30.82;22.12
61814;BME280;57055;-35.296;149.168;2023-01-28T06:20:20;94510.90;;;30.92;24.19
61814;BME280;57055;-35.296;149.168;2023-01-28T06:22:51;94505.82;;;30.76;22.88
61814;BME280;57055;-35.296;149.168;2023-01-28T06:25:20;94508.41;;;30.59;25.47
61814;BME280;57055;-35.296;149.168;2023-01-28T06:27:49;94504.39;;;30.64;24.99
61814;BME280;57055;-35.296;149.168;2023-01-28T06:30:18;94504.10;;;30.70;23.53
61814;BME280;57055;-35.296;149.168;2023-01-28T06:32:52;94505.37;;;30.80;23.41
61814;BME280;57055;-35.296;149.168;2023-01-28T06:35:22;94512.80;;;30.91;23.50
61814;BME280;57055;-35.296;149.168;2023-01-28T06:37:51;94513.05;;;30.59;24.97
61814;BME280;57055;-35.296;149.168;2023-01-28T06:40:21;94509.72;;;30.67;27.42
61814;BME280;57055;-35.296;149.168;2023-01-28T06:42:49;94511.40;;;30.72;26.40
61814;BME280;57055;-35.296;149.168;2023-01-28T06:45:18;94507.63;;;30.33;27.79
61814;BME280;57055;-35.296;149.168;2023-01-28T06:47:48;94515.74;;;30.49;27.15
61814;BME280;57055;-35.296;149.168;2023-01-28T06:50:18;94513.70;;;30.61;29.65
61814;BME280;57055;-35.296;149.168;2023-01-28T06:52:47;94516.66;;;30.32;29.46
61814;BME280;57055;-35.296;149.168;2023-01-28T06:55:17;94515.55;;;30.26;28.25
61814;BME280;57055;-35.296;149.168;2023-01-28T06:57:46;94517.01;;;29.88;29.30
61814;BME280;57055;-35.296;149.168;2023-01-28T07:00:16;94518.88;;;30.12;28.99
61814;BME280;57055;-35.296;149.168;2023-01-28T07:02:45;94522.80;;;29.97;30.14
61814;BME280;57055;-35.296;149.168;2023-01-28T07:05:14;94523.06;;;29.76;29.95
61814;BME280;57055;-35.296;149.168;2023-01-28T07:07:44;94527.53;;;29.82;31.32
61814;BME280;57055;-35.296;149.168;2023-01-28T07:10:13;94529.87;;;29.49;31.90
61814;BME280;57055;-35.296;149.168;2023-01-28T07:12:42;94528.04;;;29.75;29.39
61814;BME280;57055;-35.296;149.168;2023-01-28T07:15:12;94529.81;;;29.78;29.31
61814;BME280;57055;-35.296;149.168;2023-01-28T07:17:41;94530.34;;;29.62;28.02
61814;BME280;57055;-35.296;149.168;2023-01-28T07:20:12;94530.23;;;29.76;29.00
61814;BME280;57055;-35.296;149.168;2023-01-28T07:22:42;94534.70;;;29.69;29.66
61814;BME280;57055;-35.296;149.168;2023-01-28T07:25:13;94536.66;;;29.61;29.97
61814;BME280;57055;-35.296;149.168;2023-01-28T07:27:48;94539.36;;;29.66;28.89
61814;BME280;57055;-35.296;149.168;2023-01-28T07:30:18;94544.91;;;29.53;29.99
61814;BME280;57055;-35.296;149.168;2023-01-28T07:32:51;94546.00;;;29.40;32.32
61814;BME280;57055;-35.296;149.168;2023-01-28T07:35:20;94547.62;;;29.35;31.35
61814;BME280;57055;-35.296;149.168;2023-01-28T07:37:53;94553.25;;;29.27;30.77
61814;BME280;57055;-35.296;149.168;2023-01-28T07:40:23;94559.33;;;29.31;31.21
61814;BME280;57055;-35.296;149.168;2023-01-28T07:42:52;94558.11;;;29.27;31.33
61814;BME280;57055;-35.296;149.168;2023-01-28T07:45:22;94558.07;;;29.46;29.88
61814;BME280;57055;-35.296;149.168;2023-01-28T07:47:56;94562.73;;;29.09;30.84
61814;BME280;57055;-35.296;149.168;2023-01-28T07:50:27;94563.02;;;28.95;31.76
61814;BME280;57055;-35.296;149.168;2023-01-28T07:52:56;94568.40;;;28.77;33.72
61814;BME280;57055;-35.296;149.168;2023-01-28T07:55:25;94570.95;;;28.98;32.72
61814;BME280;57055;-35.296;149.168;2023-01-28T07:57:56;94570.09;;;29.14;31.79
61814;BME280;57055;-35.296;149.168;2023-01-28T08:00:27;94573.06;;;28.50;34.44
61814;BME280;57055;-35.296;149.168;2023-01-28T08:02:58;94572.25;;;28.54;35.40
61814;BME280;57055;-35.296;149.168;2023-01-28T08:05:35;94570.92;;;28.36;35.76
61814;BME280;57055;-35.296;149.168;2023-01-28T08:08:05;94569.57;;;28.41;34.50
61814;BME280;57055;-35.296;149.168;2023-01-28T08:10:35;94577.02;;;28.49;34.43
61814;BME280;57055;-35.296;149.168;2023-01-28T08:13:05;94579.61;;;28.42;34.77
61814;BME280;57055;-35.296;149.168;2023-01-28T08:15:34;94583.53;;;28.39;36.85
61814;BME280;57055;-35.296;149.168;2023-01-28T08:18:06;94586.54;;;28.38;35.68
61814;BME280;57055;-35.296;149.168;2023-01-28T08:20:35;94584.08;;;28.17;40.13
61814;BME280;57055;-35.296;149.168;2023-01-28T08:23:06;94586.47;;;27.82;41.14
61814;BME280;57055;-35.296;149.168;2023-01-28T08:25:36;94583.63;;;28.12;39.69
61814;BME280;57055;-35.296;149.168;2023-01-28T08:28:06;94583.95;;;28.00;40.11
61814;BME280;57055;-35.296;149.168;2023-01-28T08:30:36;94590.58;;;27.61;41.47
61814;BME280;57055;-35.296;149.168;2023-01-28T08:33:06;94590.16;;;27.94;38.11
61814;BME280;57055;-35.296;149.168;2023-01-28T08:35:36;94591.44;;;27.85;36.30
61814;BME280;57055;-35.296;149.168;2023-01-28T08:38:06;94593.48;;;28.02;34.29
61814;BME280;57055;-35.296;149.168;2023-01-28T08:40:35;94590.57;;;28.11;33.06
61814;BME280;57055;-35.296;149.168;2023-01-28T08:43:05;94594.56;;;28.12;34.48
61814;BME280;57055;-35.296;149.168;2023-01-28T08:45:34;94597.78;;;28.02;33.76
61814;BME280;57055;-35.296;149.168;2023-01-28T08:48:05;94599.24;;;27.97;33.04
61814;BME280;57055;-35.296;149.168;2023-01-28T08:50:36;94597.72;;;27.84;34.18
61814;BME280;57055;-35.296;149.168;2023-01-28T08:53:09;94599.85;;;27.91;34.46
61814;BME280;57055;-35.296;149.168;2023-01-28T08:55:38;94602.87;;;27.95;35.25
61814;BME280;57055;-35.296;149.168;2023-01-28T08:58:11;94606.59;;;27.55;35.16
61814;BME280;57055;-35.296;149.168;2023-01-28T09:00:40;94608.78;;;27.63;36.30
61814;BME280;57055;-35.296;149.168;2023-01-28T09:03:09;94613.39;;;27.40;37.01
61814;BME280;57055;-35.296;149.168;2023-01-28T09:05:38;94618.20;;;27.33;37.23
61814;BME280;57055;-35.296;149.168;2023-01-28T09:08:09;94618.26;;;27.20;40.08
61814;BME280;57055;-35.296;149.168;2023-01-28T09:10:40;94619.58;;;27.03;41.57
61814;BME280;57055;-35.296;149.168;2023-01-28T09:13:11;94622.56;;;26.84;42.05
61814;BME280;57055;-35.296;149.168;2023-01-28T09:15:41;94623.15;;;26.87;42.32
61814;BME280;57055;-35.296;149.168;2023-01-28T09:18:10;94633.04;;;26.53;42.89
61814;BME280;57055;-35.296;149.168;2023-01-28T09:20:40;94637.65;;;26.67;43.09
61814;BME280;57055;-35.296;149.168;2023-01-28T09:23:09;94641.41;;;26.39;40.64
61814;BME280;57055;-35.296;149.168;2023-01-28T09:25:38;94648.47;;;26.33;41.77
61814;BME280;57055;-35.296;149.168;2023-01-28T09:28:08;94649.14;;;26.48;42.46
61814;BME280;57055;-35.296;149.168;2023-01-28T09:30:37;94653.02;;;26.37;41.34
61814;BME280;57055;-35.296;149.168;2023-01-28T09:33:06;94654.36;;;26.54;41.92
61814;BME280;57055;-35.296;149.168;2023-01-28T09:35:35;94654.57;;;26.19;42.87
61814;BME280;57055;-35.296;149.168;2023-01-28T09:38:04;94658.73;;;26.18;42.37
61814;BME280;57055;-35.296;149.168;2023-01-28T09:40:36;94659.31;;;26.16;42.43
61814;BME280;57055;-35.296;149.168;2023-01-28T09:43:37;94661.39;;;26.29;42.91
61814;BME280;57055;-35.296;149.168;2023-01-28T09:46:13;94669.69;;;25.96;43.49
61814;BME280;57055;-35.296;149.168;2023-01-28T09:48:47;94670.57;;;25.88;43.38
61814;BME280;57055;-35.296;149.168;2023-01-28T09:51:28;94674.53;;;25.76;43.50
61814;BME280;57055;-35.296;149.168;2023-01-28T09:54:04;94672.88;;;25.86;41.17
61814;BME280;57055;-35.296;149.168;2023-01-28T09:56:40;94672.87;;;25.82;41.61
61814;BME280;57055;-35.296;149.168;2023-01-28T09:59:17;94672.33;;;25.84;41.31
61814;BME280;57055;-35.296;149.168;2023-01-28T10:01:53;94670.91;;;25.85;41.22
61814;BME280;57055;-35.296;149.168;2023-01-28T10:04:36;94670.72;;;25.82;41.25
61814;BME280;57055;-35.296;149.168;2023-01-28T10:07:19;94670.74;;;25.73;41.35
61814;BME280;57055;-35.296;149.168;2023-01-28T10:09:58;94667.08;;;25.58;40.99
61814;BME280;57055;-35.296;149.168;2023-01-28T10:12:43;94671.40;;;25.55;41.43
61814;BME280;57055;-35.296;149.168;2023-01-28T10:15:32;94673.18;;;25.51;40.67
61814;BME280;57055;-35.296;149.168;2023-01-28T10:18:13;94675.36;;;25.59;40.73
61814;BME280;57055;-35.296;149.168;2023-01-28T10:20:45;94678.65;;;25.32;40.82
61814;BME280;57055;-35.296;149.168;2023-01-28T10:23:21;94677.42;;;25.37;40.99
61814;BME280;57055;-35.296;149.168;2023-01-28T10:25:50;94677.78;;;25.04;41.45
61814;BME280;57055;-35.296;149.168;2023-01-28T10:28:21;94676.92;;;25.01;41.69
61814;BME280;57055;-35.296;149.168;2023-01-28T10:30:51;94680.45;;;25.13;41.49
61814;BME280;57055;-35.296;149.168;2023-01-28T10:33:27;94678.52;;;24.79;41.89
61814;BME280;57055;-35.296;149.168;2023-01-28T10:35:58;94678.37;;;25.12;41.99
61814;BME280;57055;-35.296;149.168;2023-01-28T10:38:28;94686.36;;;24.89;41.60
61814;BME280;57055;-35.296;149.168;2023-01-28T10:41:01;94693.40;;;24.77;41.56
61814;BME280;57055;-35.296;149.168;2023-01-28T10:43:34;94694.22;;;25.21;41.32
61814;BME280;57055;-35.296;149.168;2023-01-28T10:46:09;94698.87;;;24.96;41.13
61814;BME280;57055;-35.296;149.168;2023-01-28T10:48:44;94701.08;;;24.91;40.61
61814;BME280;57055;-35.296;149.168;2023-01-28T10:51:14;94706.54;;;24.86;40.69
61814;BME280;57055;-35.296;149.168;2023-01-28T10:53:45;94710.85;;;24.60;40.65
61814;BME280;57055;-35.296;149.168;2023-01-28T10:56:16;94712.83;;;24.78;40.58
61814;BME280;57055;-35.296;149.168;2023-01-28T10:59:00;94723.80;;;24.68;40.92
61814;BME280;57055;-35.296;149.168;2023-01-28T11:01:48;94726.45;;;24.51;41.36
61814;BME280;57055;-35.296;149.168;2023-01-28T11:04:21;94733.41;;;24.44;40.81
61814;BME280;57055;-35.296;149.168;2023-01-28T11:07:00;94741.32;;;24.34;40.97
61814;BME280;57055;-35.296;149.168;2023-01-28T11:09:30;94743.13;;;24.63;40.96
61814;BME280;57055;-35.296;149.168;2023-01-28T11:12:11;94742.86;;;24.56;40.88
61814;BME280;57055;-35.296;149.168;2023-01-28T11:14:50;94740.83;;;24.33;40.93
61814;BME280;57055;-35.296;149.168;2023-01-28T11:17:20;94739.18;;;24.15;41.03
61814;BME280;57055;-35.296;149.168;2023-01-28T11:19:50;94741.58;;;24.28;41.35
61814;BME280;57055;-35.296;149.168;2023-01-28T11:22:25;94751.65;;;24.21;41.29
61814;BME280;57055;-35.296;149.168;2023-01-28T11:24:57;94753.00;;;23.91;41.18
61814;BME280;57055;-35.296;149.168;2023-01-28T11:27:29;94754.95;;;24.15;41.13
61814;BME280;57055;-35.296;149.168;2023-01-28T11:30:00;94756.35;;;24.18;41.11
61814;BME280;57055;-35.296;149.168;2023-01-28T11:32:30;94760.29;;;23.98;41.24
61814;BME280;57055;-35.296;149.168;2023-01-28T11:35:00;94759.06;;;24.22;41.44
61814;BME280;57055;-35.296;149.168;2023-01-28T11:37:29;94761.04;;;23.98;41.34
61814;BME280;57055;-35.296;149.168;2023-01-28T11:40:09;94765.34;;;24.27;41.31
61814;BME280;57055;-35.296;149.168;2023-01-28T11:42:42;94768.82;;;24.39;41.15
61814;BME280;57055;-35.296;149.168;2023-01-28T11:45:16;94766.05;;;24.27;41.08
61814;BME280;57055;-35.296;149.168;2023-01-28T11:47:57;94766.34;;;24.07;41.24
61814;BME280;57055;-35.296;149.168;2023-01-28T11:50:37;94765.56;;;23.99;41.64
61814;BME280;57055;-35.296;149.168;2023-01-28T11:53:23;94766.21;;;23.91;42.09
61814;BME280;57055;-35.296;149.168;2023-01-28T11:56:08;94759.89;;;24.10;42.26
61814;BME280;57055;-35.296;149.168;2023-01-28T11:58:47;94759.71;;;24.09;42.29
61814;BME280;57055;-35.296;149.168;2023-01-28T12:01:27;94762.43;;;23.88;42.44
61814;BME280;57055;-35.296;149.168;2023-01-28T12:04:19;94767.81;;;23.86;42.58
61814;BME280;57055;-35.296;149.168;2023-01-28T12:07:33;94770.46;;;24.11;42.61
61814;BME280;57055;-35.296;149.168;2023-01-28T12:10:12;94777.58;;;24.09;42.69
61814;BME280;57055;-35.296;149.168;2023-01-28T12:13:01;94777.30;;;24.08;42.89
61814;BME280;57055;-35.296;149.168;2023-01-28T12:15:50;94774.13;;;24.12;43.17
61814;BME280;57055;-35.296;149.168;2023-01-28T12:18:35;94768.45;;;24.10;43.42
61814;BME280;57055;-35.296;149.168;2023-01-28T12:21:16;94756.99;;;23.82;43.79
61814;BME280;57055;-35.296;149.168;2023-01-28T12:24:04;94752.90;;;23.85;44.11
61814;BME280;57055;-35.296;149.168;2023-01-28T12:26:48;94760.26;;;23.54;44.09
61814;BME280;57055;-35.296;149.168;2023-01-28T12:29:28;94769.73;;;23.69;44.79
61814;BME280;57055;-35.296;149.168;2023-01-28T12:32:13;94771.05;;;23.63;45.17
61814;BME280;57055;-35.296;149.168;2023-01-28T12:35:09;94776.12;;;23.62;45.25
61814;BME280;57055;-35.296;149.168;2023-01-28T12:37:58;94778.02;;;23.65;45.80
61814;BME280;57055;-35.296;149.168;2023-01-28T12:40:44;94775.68;;;23.63;46.12
61814;BME280;57055;-35.296;149.168;2023-01-28T12:43:21;94772.88;;;23.68;46.52
61814;BME280;57055;-35.296;149.168;2023-01-28T12:45:55;94775.13;;;23.61;46.95
61814;BME280;57055;-35.296;149.168;2023-01-28T12:48:31;94778.56;;;23.56;47.29
61814;BME280;57055;-35.296;149.168;2023-01-28T12:51:06;94774.58;;;23.50;47.61
61814;BME280;57055;-35.296;149.168;2023-01-28T12:53:41;94766.88;;;23.55;47.64
61814;BME280;57055;-35.296;149.168;2023-01-28T12:56:16;94769.32;;;23.64;47.75